KR-0324 weather

Hyundai Hypherion Apartments Heliports
Busan, Busan Gwang'yeogsi, South Korea

Public forecast

Using degrees Celsius for public forecast. Weather courtesy of forecast.io.

METAR (pilot weather report)

Closest report is Gimhae International Airport, 10.4 nm (19.3 km) W. Retrieved 2019/08/20 01:00 UTC (55 minutes ago):

RKPK 200100Z 02013KT 9999 FEW030 BKN080 28/20 Q1010

TAF (pilot weather forecast)

Forecast is more than 6 hours old.

Closest forecast is Gimhae International Airport, 10.4 nm (19.3 km) W. Retrieved 2019/08/19 18:07 UTC (8 hours ago):

TAF RKPK 191700Z 1918/2024 03006KT 4800 BR SCT030 BKN200 TN24/1920Z TX30/2005Z BECMG 1920/1921 3200 BECMG 2000/2001 03008KT 4800 SCT030 SCT200 BECMG 2002/2003 9000 NSW BKN030 TEMPO 2005/2010 4800 -RA BR FEW015 OVC030